createdAt,value
2016-05-24T00:00:46.185Z,11.59
2016-05-24T00:01:46.156Z,11.52
2016-05-24T00:02:46.144Z,11.52
2016-05-24T00:03:46.099Z,11.55
2016-05-24T00:04:45.931Z,11.55
2016-05-24T00:05:46.058Z,11.5
2016-05-24T00:06:46.045Z,11.55
2016-05-24T00:07:46.016Z,11.55
2016-05-24T00:08:45.987Z,11.63
2016-05-24T00:09:45.819Z,11.57
2016-05-24T00:10:45.947Z,11.65
2016-05-24T00:11:45.917Z,11.6
2016-05-24T00:12:45.748Z,11.57
2016-05-24T00:13:45.876Z,11.59
2016-05-24T00:14:45.847Z,11.55
2016-05-24T00:15:45.663Z,11.59
2016-05-24T00:16:45.650Z,11.55
2016-05-24T00:17:45.778Z,11.54
2016-05-24T00:18:45.749Z,11.69
2016-05-24T00:19:45.736Z,11.6
2016-05-24T00:20:45.708Z,11.62
2016-05-24T00:21:45.680Z,11.54
2016-05-24T00:22:45.666Z,11.51
2016-05-24T00:23:45.638Z,11.52
2016-05-24T00:24:45.609Z,11.54
2016-05-24T00:25:45.596Z,11.55
2016-05-24T00:26:45.567Z,11.54
2016-05-24T00:27:45.539Z,11.59
2016-05-24T00:28:45.526Z,11.54
2016-05-24T00:29:45.498Z,11.48
2016-05-24T00:30:45.484Z,11.51
2016-05-24T00:31:45.457Z,11.51
2016-05-24T00:32:45.427Z,11.52
2016-05-24T00:33:45.399Z,11.5
2016-05-24T00:34:45.386Z,11.51
2016-05-24T00:35:45.373Z,11.47
2016-05-24T00:36:45.328Z,11.43
2016-05-24T00:37:45.315Z,11.54
2016-05-24T00:38:45.287Z,11.47
2016-05-24T00:39:45.259Z,11.59
2016-05-24T00:40:45.246Z,11.47
2016-05-24T00:41:45.217Z,11.48
2016-05-24T00:42:45.189Z,11.47
2016-05-24T00:43:45.175Z,11.48
2016-05-24T00:44:45.334Z,11.5
2016-05-24T00:45:44.978Z,11.44
2016-05-24T00:46:45.106Z,11.5
2016-05-24T00:47:45.077Z,11.48
2016-05-24T00:48:45.049Z,11.45
2016-05-24T00:49:45.036Z,11.48
2016-05-24T00:50:45.008Z,11.47
2016-05-24T00:51:44.978Z,11.57
2016-05-24T00:52:44.950Z,11.51
2016-05-24T00:53:44.952Z,11.54
2016-05-24T00:54:44.908Z,11.5
2016-05-24T00:55:44.896Z,11.52
2016-05-24T00:56:44.883Z,11.45
2016-05-24T00:57:44.838Z,11.51
2016-05-24T00:58:44.826Z,11.55
2016-05-24T00:59:45.031Z,11.51
2016-05-24T01:00:44.623Z,11.45
2016-05-24T01:01:44.794Z,11.41
2016-05-24T01:02:44.794Z,11.5
2016-05-24T01:03:44.795Z,11.43
2016-05-24T01:04:44.809Z,11.45
2016-05-24T01:05:44.802Z,11.47
2016-05-24T01:06:44.784Z,11.47
2016-05-24T01:07:44.780Z,11.41
2016-05-24T01:08:44.763Z,11.45
2016-05-24T01:09:44.760Z,11.47
2016-05-24T01:10:44.723Z,11.48
2016-05-24T01:11:44.714Z,11.51
2016-05-24T01:12:44.690Z,11.43
2016-05-24T01:13:44.664Z,11.5
2016-05-24T01:14:44.796Z,11.47
2016-05-24T01:15:44.630Z,11.43
2016-05-24T01:16:44.602Z,11.37
2016-05-24T01:17:44.591Z,11.45
2016-05-24T01:18:44.563Z,11.45
2016-05-24T01:19:44.379Z,11.45
2016-05-24T01:20:44.523Z,11.45
2016-05-24T01:21:44.496Z,11.45
2016-05-24T01:22:44.326Z,11.48
2016-05-24T01:23:44.299Z,11.44
2016-05-24T01:24:44.426Z,11.47
2016-05-24T01:25:44.399Z,11.47
2016-05-24T01:26:44.385Z,11.4
2016-05-24T01:27:44.358Z,11.47
2016-05-24T01:28:44.329Z,11.5
2016-05-24T01:29:44.317Z,11.44
2016-05-24T01:30:44.132Z,11.48
2016-05-24T01:31:44.261Z,11.36
2016-05-24T01:32:44.232Z,11.41
2016-05-24T01:33:44.062Z,11.41
2016-05-24T01:34:44.189Z,11.3
2016-05-24T01:35:44.177Z,11.41
2016-05-24T01:36:44.148Z,11.43
2016-05-24T01:37:44.120Z,11.47
2016-05-24T01:38:44.092Z,11.41
2016-05-24T01:39:44.078Z,11.35
2016-05-24T01:40:44.050Z,11.32
2016-05-24T01:41:43.880Z,11.3
2016-05-24T01:42:43.852Z,11.35
2016-05-24T01:43:43.979Z,11.29
2016-05-24T01:44:43.983Z,11.32
2016-05-24T01:45:43.938Z,11.29
2016-05-24T01:46:43.910Z,11.37
2016-05-24T01:47:43.881Z,11.27
2016-05-24T01:48:43.868Z,11.3
2016-05-24T01:49:43.840Z,11.35
2016-05-24T01:50:43.812Z,11.32
2016-05-24T01:51:43.814Z,11.32
2016-05-24T01:52:43.770Z,11.3
2016-05-24T01:53:43.740Z,11.3
2016-05-24T01:54:43.728Z,11.25
2016-05-24T01:55:43.700Z,11.29
2016-05-24T01:56:43.671Z,11.14
2016-05-24T01:57:43.658Z,11.11
2016-05-24T01:58:43.629Z,11.1
2016-05-24T01:59:43.773Z,11.12
2016-05-24T02:00:43.573Z,11.14
2016-05-24T02:01:43.559Z,11.02
2016-05-24T02:02:43.531Z,11.12
2016-05-24T02:03:43.502Z,11.14
2016-05-24T02:04:43.489Z,11.08
2016-05-24T02:05:43.460Z,11.02
2016-05-24T02:06:43.448Z,11.04
2016-05-24T02:07:43.420Z,11.02
2016-05-24T02:08:43.391Z,10.93
2016-05-24T02:09:43.377Z,11.02
2016-05-24T02:10:43.349Z,11
2016-05-24T02:11:43.164Z,10.93
2016-05-24T02:12:43.292Z,10.96
2016-05-24T02:13:43.280Z,11
2016-05-24T02:14:43.579Z,10.96
2016-05-24T02:15:43.066Z,11
2016-05-24T02:16:43.209Z,11
2016-05-24T02:17:43.180Z,10.99
2016-05-24T02:18:43.152Z,10.99
2016-05-24T02:19:43.123Z,10.97
2016-05-24T02:20:43.111Z,10.93
2016-05-24T02:21:43.082Z,10.97
2016-05-24T02:22:43.053Z,10.9
2016-05-24T02:23:43.040Z,11
2016-05-24T02:24:43.012Z,10.96
2016-05-24T02:25:42.984Z,10.96
2016-05-24T02:26:42.814Z,10.94
2016-05-24T02:27:42.942Z,10.99
2016-05-24T02:28:42.914Z,10.96
2016-05-24T02:29:43.167Z,10.92
2016-05-24T02:30:42.715Z,10.92
2016-05-24T02:31:42.843Z,10.86
2016-05-24T02:32:42.830Z,10.9
2016-05-24T02:33:42.645Z,10.89
2016-05-24T02:34:42.772Z,10.82
2016-05-24T02:35:42.745Z,10.81
2016-05-24T02:36:42.716Z,10.79
2016-05-24T02:37:42.703Z,10.86
2016-05-24T02:38:42.674Z,10.86
2016-05-24T02:39:42.661Z,10.78
2016-05-24T02:40:42.633Z,10.86
2016-05-24T02:41:42.605Z,10.78
2016-05-24T02:42:42.420Z,10.89
2016-05-24T02:43:42.563Z,10.9
2016-05-24T02:44:42.643Z,10.84
2016-05-24T02:45:42.505Z,10.84
2016-05-24T02:46:42.493Z,10.89
2016-05-24T02:47:42.527Z,10.78
2016-05-24T02:48:42.436Z,10.81
2016-05-24T02:49:42.282Z,10.87
2016-05-24T02:50:42.394Z,10.9
2016-05-24T02:51:42.365Z,10.9
2016-05-24T02:52:42.353Z,10.87
2016-05-24T02:53:42.324Z,10.86
2016-05-24T02:54:42.296Z,10.79
2016-05-24T02:55:42.267Z,10.81
2016-05-24T02:56:42.239Z,10.76
2016-05-24T02:57:42.070Z,10.81
2016-05-24T02:58:42.198Z,10.81
2016-05-24T02:59:42.497Z,10.75
2016-05-24T03:00:42.156Z,10.82
2016-05-24T03:01:42.127Z,10.9
2016-05-24T03:02:42.098Z,10.84
2016-05-24T03:03:42.070Z,10.92
2016-05-24T03:04:42.057Z,10.86
2016-05-24T03:05:42.028Z,10.89
2016-05-24T03:06:42.016Z,10.94
2016-05-24T03:07:42.003Z,10.9
2016-05-24T03:08:41.958Z,10.97
2016-05-24T03:09:41.930Z,10.87
2016-05-24T03:10:41.917Z,10.9
2016-05-24T03:11:41.888Z,10.82
2016-05-24T03:12:41.860Z,10.79
2016-05-24T03:13:41.830Z,10.84
2016-05-24T03:14:41.849Z,10.87
2016-05-24T03:15:41.790Z,10.81
2016-05-24T03:16:41.761Z,10.81
2016-05-24T03:17:41.749Z,10.79
2016-05-24T03:18:41.719Z,10.82
2016-05-24T03:19:41.690Z,10.82
2016-05-24T03:20:41.678Z,10.84
2016-05-24T03:21:41.649Z,10.82
2016-05-24T03:22:41.621Z,10.79
2016-05-24T03:23:41.593Z,10.79
2016-05-24T03:24:41.579Z,10.9
2016-05-24T03:25:41.551Z,10.82
2016-05-24T03:26:41.538Z,10.82
2016-05-24T03:27:41.509Z,10.9
2016-05-24T03:28:41.481Z,10.79
2016-05-24T03:29:41.312Z,10.82
2016-05-24T03:30:41.283Z,10.87
2016-05-24T03:31:41.411Z,10.79
2016-05-24T03:32:41.382Z,10.81
2016-05-24T03:33:41.353Z,10.82
2016-05-24T03:34:41.341Z,10.81
2016-05-24T03:35:41.156Z,10.82
2016-05-24T03:36:41.283Z,10.78
2016-05-24T03:37:41.271Z,10.87
2016-05-24T03:38:41.242Z,10.78
2016-05-24T03:39:41.058Z,10.82
2016-05-24T03:40:41.185Z,10.82
2016-05-24T03:41:41.172Z,10.86
2016-05-24T03:42:41.143Z,10.82
2016-05-24T03:43:41.116Z,10.87
2016-05-24T03:44:41.493Z,10.89
2016-05-24T03:45:41.074Z,10.86
2016-05-24T03:46:41.044Z,10.86
2016-05-24T03:47:41.032Z,10.82
2016-05-24T03:48:41.003Z,10.87
2016-05-24T03:49:40.819Z,10.87
2016-05-24T03:50:40.962Z,10.82
2016-05-24T03:51:40.933Z,10.78
2016-05-24T03:52:40.904Z,10.82
2016-05-24T03:53:40.877Z,10.82
2016-05-24T03:54:40.863Z,10.84
2016-05-24T03:55:40.835Z,10.75
2016-05-24T03:56:40.821Z,10.75
2016-05-24T03:57:40.793Z,10.76
2016-05-24T03:58:40.765Z,10.79
2016-05-24T03:59:40.736Z,10.78
2016-05-24T04:00:40.723Z,10.69
2016-05-24T04:01:40.695Z,10.6
2016-05-24T04:02:40.666Z,10.68
2016-05-24T04:03:40.637Z,10.6
2016-05-24T04:04:40.625Z,10.67
2016-05-24T04:05:40.596Z,10.68
2016-05-24T04:06:40.567Z,10.71
2016-05-24T04:07:40.383Z,10.68
2016-05-24T04:08:40.525Z,10.72
2016-05-24T04:09:40.341Z,10.63
2016-05-24T04:10:40.484Z,10.61
2016-05-24T04:11:40.456Z,10.63
2016-05-24T04:12:40.427Z,10.64
2016-05-24T04:13:40.399Z,10.64
2016-05-24T04:14:40.791Z,10.64
2016-05-24T04:15:40.357Z,10.64
2016-05-24T04:16:40.330Z,10.61
2016-05-24T04:17:40.300Z,10.6
2016-05-24T04:18:40.131Z,10.67
2016-05-24T04:19:40.258Z,10.69
2016-05-24T04:20:40.229Z,10.71
2016-05-24T04:21:40.218Z,10.76
2016-05-24T04:22:40.188Z,10.69
2016-05-24T04:23:40.160Z,10.74
2016-05-24T04:24:40.147Z,10.76
2016-05-24T04:25:40.118Z,10.78
2016-05-24T04:26:40.090Z,10.74
2016-05-24T04:27:40.061Z,10.75
2016-05-24T04:28:40.049Z,10.75
2016-05-24T04:29:40.020Z,10.72
2016-05-24T04:30:39.992Z,10.71
2016-05-24T04:31:39.962Z,10.74
2016-05-24T04:32:39.950Z,10.69
2016-05-24T04:33:39.921Z,10.68
2016-05-24T04:34:39.893Z,10.74
2016-05-24T04:35:39.880Z,10.74
2016-05-24T04:36:39.851Z,10.75
2016-05-24T04:37:39.822Z,10.72
2016-05-24T04:38:39.809Z,10.75
2016-05-24T04:39:39.625Z,10.75
2016-05-24T04:40:39.753Z,10.72
2016-05-24T04:41:39.724Z,10.81
2016-05-24T04:42:39.711Z,10.74
2016-05-24T04:43:39.682Z,10.74
2016-05-24T04:44:39.842Z,10.69
2016-05-24T04:45:39.641Z,10.6
2016-05-24T04:46:39.456Z,10.75
2016-05-24T04:47:39.583Z,10.75
2016-05-24T04:48:39.555Z,10.75
2016-05-24T04:49:39.542Z,10.74
2016-05-24T04:50:39.514Z,10.76
2016-05-24T04:51:39.486Z,10.75
2016-05-24T04:52:39.457Z,10.76
2016-05-24T04:53:39.443Z,10.75
2016-05-24T04:54:39.415Z,10.74
2016-05-24T04:55:39.402Z,10.71
2016-05-24T04:56:39.374Z,10.67
2016-05-24T04:57:39.361Z,10.64
2016-05-24T04:58:39.317Z,10.64
2016-05-24T04:59:39.303Z,10.68
2016-05-24T05:00:39.276Z,10.57
2016-05-24T05:01:39.262Z,10.59
2016-05-24T05:02:39.062Z,10.54
2016-05-24T05:03:39.206Z,10.51
2016-05-24T05:04:39.176Z,10.57
2016-05-24T05:05:39.164Z,10.54
2016-05-24T05:06:39.134Z,10.6
2016-05-24T05:07:39.106Z,10.48
2016-05-24T05:08:39.078Z,10.41
2016-05-24T05:09:39.065Z,10.53
2016-05-24T05:10:39.036Z,10.56
2016-05-24T05:11:38.867Z,10.56
2016-05-24T05:12:38.980Z,10.56
2016-05-24T05:13:38.811Z,10.51
2016-05-24T05:14:38.938Z,10.56
2016-05-24T05:15:38.909Z,10.48
2016-05-24T05:16:38.896Z,10.46
2016-05-24T05:17:38.868Z,10.49
2016-05-24T05:18:38.839Z,10.6
2016-05-24T05:19:38.811Z,10.59
2016-05-24T05:20:38.797Z,10.54
2016-05-24T05:21:38.769Z,10.54
2016-05-24T05:22:38.757Z,10.63
2016-05-24T05:23:38.728Z,10.56
2016-05-24T05:24:38.698Z,10.57
2016-05-24T05:25:38.671Z,10.49
2016-05-24T05:26:38.658Z,10.56
2016-05-24T05:27:38.629Z,10.53
2016-05-24T05:28:38.600Z,10.46
2016-05-24T05:29:38.571Z,10.54
2016-05-24T05:30:38.762Z,10.59
2016-05-24T05:31:38.531Z,10.54
2016-05-24T05:32:38.501Z,10.54
2016-05-24T05:33:38.474Z,10.51
2016-05-24T05:34:38.460Z,10.54
2016-05-24T05:35:38.431Z,10.57
2016-05-24T05:36:38.404Z,10.69
2016-05-24T05:37:38.390Z,10.57
2016-05-24T05:38:38.361Z,10.63
2016-05-24T05:39:38.348Z,10.57
2016-05-24T05:40:38.320Z,10.6
2016-05-24T05:41:38.292Z,10.6
2016-05-24T05:42:38.263Z,10.71
2016-05-24T05:43:38.234Z,10.69
2016-05-24T05:44:38.066Z,10.67
2016-05-24T05:45:38.208Z,10.63
2016-05-24T05:46:38.164Z,10.68
2016-05-24T05:47:38.151Z,10.68
2016-05-24T05:48:38.138Z,10.71
2016-05-24T05:49:38.095Z,10.64
2016-05-24T05:50:38.066Z,10.71
2016-05-24T05:51:38.053Z,10.61
2016-05-24T05:52:38.024Z,10.64
2016-05-24T05:53:37.996Z,10.71
2016-05-24T05:54:37.982Z,10.59
2016-05-24T05:55:37.954Z,10.6
2016-05-24T05:56:37.926Z,10.61
2016-05-24T05:57:37.757Z,10.63
2016-05-24T05:58:37.884Z,10.69
2016-05-24T05:59:37.699Z,10.63
2016-05-24T06:00:37.843Z,10.69
2016-05-24T06:01:37.814Z,10.61
2016-05-24T06:02:37.785Z,10.61
2016-05-24T06:03:37.803Z,10.64
2016-05-24T06:04:37.745Z,10.63
2016-05-24T06:05:37.715Z,10.6
2016-05-24T06:06:37.687Z,10.63
2016-05-24T06:07:37.673Z,10.68
2016-05-24T06:08:37.645Z,10.68
2016-05-24T06:09:37.616Z,10.64
2016-05-24T06:10:38.291Z,10.61
2016-05-24T06:11:37.576Z,10.64
2016-05-24T06:12:37.875Z,10.64
2016-05-24T06:13:37.518Z,10.68
2016-05-24T06:14:37.350Z,10.63
2016-05-24T06:15:37.320Z,10.64
2016-05-24T06:16:37.947Z,10.64
2016-05-24T06:17:37.279Z,10.6
2016-05-24T06:18:37.250Z,10.72
2016-05-24T06:19:37.394Z,10.68
2016-05-24T06:20:37.366Z,10.75
2016-05-24T06:21:37.336Z,10.74
2016-05-24T06:22:37.308Z,10.75
2016-05-24T06:23:37.279Z,10.76
2016-05-24T06:24:37.266Z,10.76
2016-05-24T06:25:37.238Z,10.74
2016-05-24T06:26:37.210Z,10.72
2016-05-24T06:27:37.196Z,10.69
2016-05-24T06:28:37.184Z,10.71
2016-05-24T06:29:37.155Z,10.78
2016-05-24T06:30:37.126Z,10.72
2016-05-24T06:31:37.098Z,10.75
2016-05-24T06:32:37.070Z,10.74
2016-05-24T06:33:36.901Z,10.75
2016-05-24T06:34:37.028Z,10.75
2016-05-24T06:35:36.999Z,10.76
2016-05-24T06:36:36.987Z,10.78
2016-05-24T06:37:36.958Z,10.74
2016-05-24T06:38:37.086Z,10.78
2016-05-24T06:39:36.917Z,10.75
2016-05-24T06:40:36.888Z,10.78
2016-05-24T06:41:36.859Z,10.78
2016-05-24T06:42:36.830Z,10.75
2016-05-24T06:43:36.817Z,10.78
2016-05-24T06:44:36.789Z,10.69
2016-05-24T06:45:36.605Z,10.72
2016-05-24T06:46:36.748Z,10.69
2016-05-24T06:47:36.719Z,10.79
2016-05-24T06:48:36.691Z,10.72
2016-05-24T06:49:36.678Z,10.74
2016-05-24T06:50:36.650Z,10.75
2016-05-24T06:51:36.621Z,10.79
2016-05-24T06:52:36.592Z,10.69
2016-05-24T06:53:36.579Z,10.74
2016-05-24T06:54:36.597Z,10.79
2016-05-24T06:55:36.522Z,10.75
2016-05-24T06:56:36.509Z,10.71
2016-05-24T06:57:36.480Z,10.79
2016-05-24T06:58:36.468Z,10.72
2016-05-24T06:59:36.283Z,10.81
2016-05-24T07:00:36.567Z,10.84
2016-05-24T07:01:36.382Z,10.87
2016-05-24T07:02:36.369Z,10.81
2016-05-24T07:03:36.340Z,10.78
2016-05-24T07:04:36.390Z,10.9
2016-05-24T07:05:36.315Z,10.96
2016-05-24T07:06:36.270Z,10.93
2016-05-24T07:07:36.414Z,10.97
2016-05-24T07:08:36.213Z,10.92
2016-05-24T07:09:36.201Z,10.96
2016-05-24T07:10:36.172Z,10.99
2016-05-24T07:11:36.159Z,11.02
2016-05-24T07:12:36.131Z,11.07
2016-05-24T07:13:36.102Z,11.11
2016-05-24T07:14:36.073Z,11.05
2016-05-24T07:15:36.060Z,11.02
2016-05-24T07:16:36.031Z,11.1
2016-05-24T07:17:36.019Z,11.14
2016-05-24T07:18:35.989Z,11.17
2016-05-24T07:19:36.164Z,11.1
2016-05-24T07:20:35.949Z,11.14
2016-05-24T07:21:35.936Z,11.18
2016-05-24T07:22:35.907Z,11.18
2016-05-24T07:23:35.894Z,11.14
2016-05-24T07:24:35.710Z,11.22
2016-05-24T07:25:35.822Z,11.23
2016-05-24T07:26:35.855Z,11.23
2016-05-24T07:27:35.780Z,11.17
2016-05-24T07:28:35.752Z,11.22
2016-05-24T07:29:35.769Z,11.15
2016-05-24T07:30:35.569Z,11.23
2016-05-24T07:31:35.540Z,11.11
2016-05-24T07:32:35.512Z,11.18
2016-05-24T07:33:35.640Z,11.22
2016-05-24T07:34:35.627Z,11.26
2016-05-24T07:35:35.598Z,11.27
2016-05-24T07:36:35.570Z,11.19
2016-05-24T07:37:35.557Z,11.27
2016-05-24T07:38:35.529Z,11.19
2016-05-24T07:39:35.515Z,11.4
2016-05-24T07:40:35.487Z,11.23
2016-05-24T07:41:35.489Z,11.33
2016-05-24T07:42:35.445Z,11.26
2016-05-24T07:43:35.417Z,11.27
2016-05-24T07:44:35.388Z,11.33
2016-05-24T07:45:35.220Z,11.35
2016-05-24T07:46:35.347Z,11.33
2016-05-24T07:47:35.317Z,11.4
2016-05-24T07:48:35.150Z,11.44
2016-05-24T07:49:35.277Z,11.43
2016-05-24T07:50:35.248Z,11.4
2016-05-24T07:51:35.236Z,11.44
2016-05-24T07:52:35.253Z,11.37
2016-05-24T07:53:35.178Z,11.37
2016-05-24T07:54:35.165Z,11.41
2016-05-24T07:55:35.136Z,11.47
2016-05-24T07:56:35.124Z,11.45
2016-05-24T07:57:35.095Z,11.45
2016-05-24T07:58:35.066Z,11.44
2016-05-24T07:59:35.038Z,11.47
2016-05-24T08:00:35.102Z,11.41
2016-05-24T08:01:34.840Z,11.47
2016-05-24T08:02:34.983Z,11.35
2016-05-24T08:03:34.955Z,11.41
2016-05-24T08:04:34.927Z,11.4
2016-05-24T08:05:35.023Z,11.4
2016-05-24T08:06:35.026Z,11.43
2016-05-24T08:07:34.887Z,11.43
2016-05-24T08:08:34.843Z,11.43
2016-05-24T08:09:34.815Z,11.36
2016-05-24T08:10:34.802Z,11.51
2016-05-24T08:11:34.773Z,11.47
2016-05-24T08:12:34.745Z,11.48
2016-05-24T08:13:34.748Z,11.55
2016-05-24T08:14:34.703Z,11.54
2016-05-24T08:15:35.268Z,11.6
2016-05-24T08:16:34.709Z,11.48
2016-05-24T08:17:34.634Z,11.51
2016-05-24T08:18:34.480Z,11.57
2016-05-24T08:19:34.607Z,11.52
2016-05-24T08:20:34.625Z,11.6
2016-05-24T08:21:34.551Z,11.59
2016-05-24T08:22:34.522Z,11.66
2016-05-24T08:23:34.556Z,11.62
2016-05-24T08:24:34.481Z,11.59
2016-05-24T08:25:34.452Z,11.62
2016-05-24T08:26:34.282Z,11.62
2016-05-24T08:27:34.410Z,11.59
2016-05-24T08:28:34.413Z,11.62
2016-05-24T08:29:34.369Z,11.72
2016-05-24T08:30:34.355Z,11.72
2016-05-24T08:31:34.327Z,11.73
2016-05-24T08:32:34.314Z,11.73
2016-05-24T08:33:34.285Z,11.83
2016-05-24T08:34:34.257Z,11.81
2016-05-24T08:35:34.229Z,11.8
2016-05-24T08:36:34.216Z,11.81
2016-05-24T08:37:34.187Z,11.7
2016-05-24T08:38:34.174Z,11.7
2016-05-24T08:39:34.145Z,11.7
2016-05-24T08:40:33.976Z,11.69
2016-05-24T08:41:33.963Z,11.68
2016-05-24T08:42:34.091Z,11.7
2016-05-24T08:43:34.063Z,11.65
2016-05-24T08:44:34.050Z,11.65
2016-05-24T08:45:33.928Z,11.68
2016-05-24T08:46:33.992Z,11.66
2016-05-24T08:47:33.995Z,11.7
2016-05-24T08:48:33.950Z,11.69
2016-05-24T08:49:33.938Z,11.65
2016-05-24T08:50:33.910Z,11.66
2016-05-24T08:51:33.881Z,11.7
2016-05-24T08:52:33.852Z,11.68
2016-05-24T08:53:33.839Z,11.75
2016-05-24T08:54:33.827Z,11.73
2016-05-24T08:55:33.797Z,11.81
2016-05-24T08:56:33.926Z,11.81
2016-05-24T08:57:33.741Z,11.87
2016-05-24T08:58:33.838Z,11.94
2016-05-24T08:59:33.699Z,11.87
2016-05-24T09:00:33.686Z,12.02
2016-05-24T09:01:33.658Z,12.02
2016-05-24T09:02:33.691Z,12.06
2016-05-24T09:03:33.461Z,12.15
2016-05-24T09:04:33.604Z,12.21
2016-05-24T09:05:33.418Z,12.32
2016-05-24T09:06:33.562Z,12.39
2016-05-24T09:07:33.377Z,12.37
2016-05-24T09:08:33.521Z,12.5
2016-05-24T09:09:33.507Z,12.49
2016-05-24T09:10:33.479Z,12.45
2016-05-24T09:11:33.451Z,12.47
2016-05-24T09:12:33.438Z,12.54
2016-05-24T09:13:33.409Z,12.6
2016-05-24T09:14:33.396Z,12.65
2016-05-24T09:15:33.305Z,12.68
2016-05-24T09:16:33.354Z,12.65
2016-05-24T09:17:33.342Z,12.75
2016-05-24T09:18:33.312Z,12.75
2016-05-24T09:19:33.300Z,12.76
2016-05-24T09:20:33.272Z,12.8
2016-05-24T09:21:33.259Z,12.7
2016-05-24T09:22:33.073Z,12.7
2016-05-24T09:23:33.311Z,12.78
2016-05-24T09:24:33.220Z,12.76
2016-05-24T09:25:33.176Z,12.8
2016-05-24T09:26:33.147Z,12.82
2016-05-24T09:27:33.133Z,12.8
2016-05-24T09:28:33.106Z,12.75
2016-05-24T09:29:33.092Z,12.79
2016-05-24T09:30:32.986Z,12.75
2016-05-24T09:31:33.052Z,12.82
2016-05-24T09:32:33.132Z,12.79
2016-05-24T09:33:33.010Z,12.78
2016-05-24T09:34:32.981Z,12.75
2016-05-24T09:35:32.968Z,12.78
2016-05-24T09:36:32.939Z,12.73
2016-05-24T09:37:32.927Z,12.76
2016-05-24T09:38:32.788Z,12.79
2016-05-24T09:39:32.885Z,12.7
2016-05-24T09:40:32.857Z,12.73
2016-05-24T09:41:32.843Z,12.78
2016-05-24T09:42:32.846Z,12.75
2016-05-24T09:43:32.880Z,12.8
2016-05-24T09:44:32.632Z,12.78
2016-05-24T09:45:32.620Z,12.79
2016-05-24T09:46:33.059Z,12.86
2016-05-24T09:47:32.735Z,12.79
2016-05-24T09:48:32.754Z,12.78
2016-05-24T09:49:32.520Z,12.72
2016-05-24T09:50:32.665Z,12.79
2016-05-24T09:51:32.636Z,12.68
2016-05-24T09:52:32.623Z,12.75
2016-05-24T09:53:32.611Z,12.73
2016-05-24T09:54:32.581Z,12.73
2016-05-24T09:55:32.584Z,12.7
2016-05-24T09:56:32.540Z,12.8
2016-05-24T09:57:32.527Z,12.8
2016-05-24T09:58:32.577Z,12.78
2016-05-24T09:59:32.470Z,12.83
2016-05-24T10:00:33.067Z,12.83
2016-05-24T10:01:32.444Z,12.9
2016-05-24T10:02:32.416Z,12.94
2016-05-24T10:03:32.403Z,13.01
2016-05-24T10:04:32.374Z,13.11
2016-05-24T10:05:32.392Z,13.04
2016-05-24T10:06:32.424Z,13.09
2016-05-24T10:07:32.355Z,13.04
2016-05-24T10:08:32.364Z,13.05
2016-05-24T10:09:32.420Z,13.13
2016-05-24T10:10:32.367Z,13.16
2016-05-24T10:11:32.351Z,13.18
2016-05-24T10:12:32.330Z,13.19
2016-05-24T10:13:32.326Z,13.15
2016-05-24T10:14:32.383Z,13.15
2016-05-24T10:15:32.301Z,13.2
2016-05-24T10:16:32.292Z,13.18
2016-05-24T10:17:32.314Z,13.28
2016-05-24T10:18:32.241Z,13.27
2016-05-24T10:19:32.230Z,13.22
2016-05-24T10:20:32.236Z,13.19
2016-05-24T10:21:34.240Z,13.2
2016-05-24T10:22:32.182Z,13.2
2016-05-24T10:23:32.186Z,13.22
2016-05-24T10:24:31.983Z,13.16
2016-05-24T10:25:32.130Z,13.12
2016-05-24T10:26:32.728Z,13.15
2016-05-24T10:27:32.072Z,13.16
2016-05-24T10:28:32.059Z,13.16
2016-05-24T10:29:32.031Z,13.31
2016-05-24T10:30:32.174Z,13.28
2016-05-24T10:31:32.084Z,13.38
2016-05-24T10:32:31.821Z,13.37
2016-05-24T10:33:31.965Z,13.39
2016-05-24T10:34:31.951Z,13.44
2016-05-24T10:35:31.938Z,13.39
2016-05-24T10:36:31.800Z,13.3
2016-05-24T10:37:31.881Z,13.28
2016-05-24T10:38:31.712Z,13.28
2016-05-24T10:39:31.840Z,13.31
2016-05-24T10:40:31.826Z,13.3
2016-05-24T10:41:31.642Z,13.37
2016-05-24T10:42:31.879Z,13.35
2016-05-24T10:43:31.756Z,13.28
2016-05-24T10:44:31.744Z,13.3
2016-05-24T10:45:31.731Z,13.39
2016-05-24T10:46:31.702Z,13.41
2016-05-24T10:47:31.549Z,13.5
2016-05-24T10:48:31.661Z,13.44
2016-05-24T10:49:31.648Z,13.47
2016-05-24T10:50:31.619Z,13.56
2016-05-24T10:51:31.606Z,13.62
2016-05-24T10:52:31.594Z,13.65
2016-05-24T10:53:31.424Z,13.72
2016-05-24T10:54:31.552Z,13.67
2016-05-24T10:55:31.538Z,13.6
2016-05-24T10:56:31.510Z,13.54
2016-05-24T10:57:31.513Z,13.59
2016-05-24T10:58:31.485Z,13.57
2016-05-24T10:59:31.456Z,13.56
2016-05-24T11:00:31.443Z,13.49
2016-05-24T11:01:31.414Z,13.47
2016-05-24T11:02:31.402Z,13.52
2016-05-24T11:03:31.420Z,13.37
2016-05-24T11:04:31.360Z,13.38
2016-05-24T11:05:31.348Z,13.41
2016-05-24T11:06:31.162Z,13.41
2016-05-24T11:07:31.306Z,13.3
2016-05-24T11:08:31.277Z,13.31
2016-05-24T11:09:31.264Z,13.31
2016-05-24T11:10:31.236Z,13.3
2016-05-24T11:11:31.223Z,13.27
2016-05-24T11:12:31.194Z,13.3
2016-05-24T11:13:31.181Z,13.31
2016-05-24T11:14:31.167Z,13.35
2016-05-24T11:15:31.000Z,13.38
2016-05-24T11:16:31.111Z,13.53
2016-05-24T11:17:31.097Z,13.46
2016-05-24T11:18:31.070Z,13.49
2016-05-24T11:19:31.056Z,13.53
2016-05-24T11:20:31.044Z,13.62
2016-05-24T11:21:31.016Z,13.56
2016-05-24T11:22:30.861Z,13.72
2016-05-24T11:23:30.974Z,13.81
2016-05-24T11:24:30.961Z,13.86
2016-05-24T11:25:30.979Z,13.89
2016-05-24T11:26:30.919Z,13.95
2016-05-24T11:27:30.907Z,14.04
2016-05-24T11:28:30.893Z,14.07
2016-05-24T11:29:30.865Z,14.14
2016-05-24T11:30:30.868Z,14.12
2016-05-24T11:31:30.839Z,14.11
2016-05-24T11:32:30.810Z,14.2
2016-05-24T11:33:30.813Z,14.15
2016-05-24T11:34:30.847Z,14.1
2016-05-24T11:35:30.757Z,14.14
2016-05-24T11:36:30.837Z,14.22
2016-05-24T11:37:30.729Z,14.18
2016-05-24T11:38:30.701Z,14.17
2016-05-24T11:39:30.689Z,14.2
2016-05-24T11:40:30.785Z,14.2
2016-05-24T11:41:30.662Z,14.11
2016-05-24T11:42:30.634Z,14.12
2016-05-24T11:43:30.465Z,14.23
2016-05-24T11:44:30.608Z,14.18
2016-05-24T11:45:30.736Z,14.18
2016-05-24T11:46:30.566Z,14.18
2016-05-24T11:47:30.381Z,14.22
2016-05-24T11:48:30.525Z,14.22
2016-05-24T11:49:30.497Z,14.17
2016-05-24T11:50:30.484Z,14.2
2016-05-24T11:51:30.456Z,14.2
2016-05-24T11:52:30.488Z,14.05
2016-05-24T11:53:30.508Z,14.04
2016-05-24T11:54:30.339Z,14.04
2016-05-24T11:55:30.388Z,14.04
2016-05-24T11:56:30.219Z,14.03
2016-05-24T11:57:30.346Z,14.1
2016-05-24T11:58:30.333Z,14.1
2016-05-24T11:59:30.321Z,14.12
2016-05-24T12:00:30.323Z,14.07
2016-05-24T12:01:30.279Z,14.11
2016-05-24T12:02:30.094Z,14.15
2016-05-24T12:03:30.331Z,14.14
2016-05-24T12:04:30.209Z,14.04
2016-05-24T12:05:30.196Z,14.11
2016-05-24T12:06:30.183Z,14.17
2016-05-24T12:07:30.154Z,14.1
2016-05-24T12:08:30.142Z,14.17
2016-05-24T12:09:29.973Z,14.28
2016-05-24T12:10:30.101Z,14.32
2016-05-24T12:11:30.087Z,14.35
2016-05-24T12:12:30.059Z,14.45
2016-05-24T12:13:30.045Z,14.45
2016-05-24T12:14:30.033Z,14.63
2016-05-24T12:15:30.270Z,14.58
2016-05-24T12:16:29.991Z,14.66
2016-05-24T12:17:30.025Z,14.77
2016-05-24T12:18:29.950Z,14.78
2016-05-24T12:19:29.953Z,14.81
2016-05-24T12:20:29.924Z,14.85
2016-05-24T12:21:29.910Z,14.86
2016-05-24T12:22:29.726Z,14.82
2016-05-24T12:23:29.869Z,14.96
2016-05-24T12:24:29.856Z,15.15
2016-05-24T12:25:29.843Z,15.18
2016-05-24T12:26:29.816Z,15.28
2016-05-24T12:27:29.802Z,15.49
2016-05-24T12:28:29.788Z,15.65
2016-05-24T12:29:29.776Z,15.82
2016-05-24T12:30:29.779Z,16.05
2016-05-24T12:31:29.735Z,16.32
2016-05-24T12:32:29.722Z,16.16
2016-05-24T12:33:29.709Z,16.16
2016-05-24T12:34:29.696Z,16.32
2016-05-24T12:35:29.683Z,16.26
2016-05-24T12:36:29.686Z,16.26
2016-05-24T12:37:29.657Z,16.38
2016-05-24T12:38:29.660Z,16.36
2016-05-24T12:39:29.615Z,16.24
2016-05-24T12:40:29.618Z,16.09
2016-05-24T12:41:29.590Z,15.98
2016-05-24T12:42:29.576Z,16
2016-05-24T12:43:29.564Z,15.95
2016-05-24T12:44:29.550Z,15.94
2016-05-24T12:45:29.881Z,15.95
2016-05-24T12:46:29.510Z,16.02
2016-05-24T12:47:29.340Z,16.09
2016-05-24T12:48:29.483Z,16.08
2016-05-24T12:49:29.486Z,16.04
2016-05-24T12:50:29.442Z,16.15
2016-05-24T12:51:29.429Z,16.28
2016-05-24T12:52:29.448Z,16.28
2016-05-24T12:53:29.403Z,16.26
2016-05-24T12:54:29.375Z,16.15
2016-05-24T12:55:29.362Z,16.16
2016-05-24T12:56:29.349Z,16.05